Main page
METAR-TAF:

METAR-TAF

Airports :

Logroño–Agoncillo Airport

Logroño, Spain

latitude: 42-27N, longitude: 002-20W, elevation: 353 m

Current weather observation

The report was made 40 minutes ago, at 10:30 UTC
Wind 16 kt from the West, varying between West/Southwest and Northwest
Temperature 14°C
Humidity 58%
Pressure 1023 hPa
Visibility 10 km or more
Few clouds at a height of 4000 ft

METAR: LELO 261030Z 28016KT 250V320 9999 FEW040 14/06 Q1023

Time: 13:10 (11:10 UTC)

Forecast

The report was made 3 hours and 10 minutes ago, at 08:00 UTC
Forecast valid from 26 at 09 UTC to 26 at 18 UTC
Wind 13 kt from the Northwest
Visibility 10 km or more
Few clouds at a height of 2500 ft
Scattered clouds at a height of 4500 ft
Probability 40% :
Temporary
from 26 at 09 UTC to 26 at 17 UTC
Wind 15 kt from the Northwest with gusts up to 27 kt

TAF: LELO 260800Z 2609/2618 31013KT 9999 FEW025 SCT045 PROB40 TEMPO 2609/2617 31015G27KT

Weather observations and forecasts of more than 4000 airports (METAR and TAF reports).

The available stations are represented by yellow and red dots on the map.

Hover mouse over dot to see the name of the station.

Then click to see weather observations and forecasts.

To change the map : click on the green buttons with a black cross to zoom in, on the green button with a dash to zoom out, or on the green arrows for adjacent maps.


METAR-TAF: